DUB weather

Dublin Airport
Dublin, County Dublin, Ireland

Public forecast

Using degrees Celsius for public forecast. Weather courtesy of forecast.io.

METAR (pilot weather report)

Retrieved 2017/05/25 01:00 UTC (15 seconds ago):

EIDW 250100Z 12006KT 0600 R16/1100D R28/0650D R10/0650D FG SCT001 BKN002 12/11 Q1024 TEMPO BKN001

TAF (pilot weather forecast)

Forecast is more than 12 hours old.

Retrieved 2017/05/24 00:57 UTC (1 day ago):

TAF COR TAF COR EIDW 242353Z 2500/2524 10006KT 9999 FEW001 BKN002 BECMG 2500/2502 4000 BR TEMPO 2500/2508 0400 FG BKN001 BECMG 2508/2511 13011KT 9999 NSW FEW010 SCT020 BECMG 2517/2520 13005KT TEMPO 2520/2524 VRB03KT